Pagrindinis puslapis
METAR-TAF:

METAR-TAF

Oro uostai :

Nuiqsut, Aliaska, Jungtinės Amerikos Valstijos

platuma: 70-12-36N, ilguma: 151-00-20W, Aukštis: 12 m

Dabartinis oras

Ataskaita buvo paskelbta 1 valandą ir 46 minutes, ne 18:21 UTC
Vėjas 10 kt iš Pietvakarių
Temperatūra -8°C
Drėgmė 100%
Slėgis 1016 hPa
Matomumas: 16.1 km
Su prošvaistėmis ne aukštis 6000 ft
Su prošvaistėmis ne aukštis 11000 ft

METAR: PAQT 281821Z 22010KT 10SM BKN060 BKN110 M08/M08 A2999 RMK (SCC FSS)

Laikas: 12:07 (20:07 UTC)

Prognozė

Ataskaita buvo paskelbta 2 valandos ir 31 minutes, ne 17:36 UTC
Prognozė galioja nuo 28 metu 18 UTC su 29 metu 18 UTC
Vėjas 9 kt iš Pietvakarių
Matomumas: 10 km
Apsiniaukę ne aukštis 6000 ft
Liūtis kaimynystėje
Nuo 29 metu 0300 UTC
Vėjas 8 kt iš Vakarų
Matomumas: 10 km
Apsiniaukę ne aukštis 2500 ft
Liūtis kaimynystėje
Nuo 29 metu 0600 UTC
Vėjas 7 kt iš Pietvakarių
Matomumas: 10 km
Apsiniaukę ne aukštis 5000 ft

TAF: PAQT 281736Z 2818/2918 23009KT P6SM VCSH OVC060 FM290300 27008KT P6SM VCSH OVC025 FM290600 23007KT P6SM OVC050

Orai ataskaitas ir orų prognozės (METAR, TAF).

turimą stotys yra geltonos ir raudonos taškus žemėlapyje.

Perkelti pele per norėdami pamatyti stoties vardą.

Tada spustelėkite, norėdami matyti oro stebėjimo ir prognozės.

Norėdami pakeisti žemėlapį: spustelėkite ant žalios mygtukų su juodo kryžiaus žemyn,; žalią mygtuką su brūkšneliu, jei norite nutolinti; arba žalių rodyklių gretimoms žemėlapius.


METAR-TAF: